createdAt,value
2022-09-12T00:01:58.315Z,13.23
2022-09-12T00:06:01.178Z,12.35
2022-09-12T00:10:04.728Z,12.65
2022-09-12T00:14:10.298Z,12.02
2022-09-12T00:18:17.727Z,14.93
2022-09-12T00:22:20.546Z,12.00
2022-09-12T00:26:23.493Z,12.30
2022-09-12T00:30:27.648Z,12.93
2022-09-12T00:34:30.353Z,10.63
2022-09-12T00:38:38.466Z,11.90
2022-09-12T00:42:41.164Z,12.60
2022-09-12T00:46:47.918Z,12.77
2022-09-12T00:50:51.382Z,12.23
2022-09-12T00:54:58.379Z,15.93
2022-09-12T00:59:07.465Z,12.85
2022-09-12T01:03:15.169Z,12.27
2022-09-12T01:07:20.592Z,15.05
2022-09-12T01:11:24.547Z,13.73
2022-09-12T01:15:27.351Z,12.57
2022-09-12T01:20:09.156Z,12.75
2022-09-12T01:24:35.509Z,15.50
2022-09-12T01:28:55.598Z,13.02
2022-09-12T01:33:29.569Z,14.65
2022-09-12T01:37:39.261Z,15.13
2022-09-12T01:41:54.477Z,12.93
2022-09-12T01:46:02.348Z,11.57
2022-09-12T01:50:09.423Z,12.30
2022-09-12T01:54:18.302Z,12.90
2022-09-12T01:58:24.029Z,12.07
2022-09-12T02:02:31.896Z,13.50
2022-09-12T02:06:41.008Z,13.60
2022-09-12T02:10:47.366Z,14.18
2022-09-12T02:14:54.109Z,14.73
2022-09-12T02:19:00.630Z,12.10
2022-09-12T02:23:08.717Z,13.13
2022-09-12T02:27:15.774Z,13.38
2022-09-12T02:31:23.853Z,12.55
2022-09-12T02:35:34.323Z,13.63
2022-09-12T02:39:41.097Z,13.48
2022-09-12T02:43:46.731Z,12.95
2022-09-12T02:47:53.931Z,14.55
2022-09-12T02:51:57.249Z,15.90
2022-09-12T02:56:01.605Z,14.63
2022-09-12T03:00:06.908Z,18.63
2022-09-12T03:04:37.793Z,15.85
2022-09-12T03:08:51.874Z,14.77
2022-09-12T03:13:07.249Z,14.05
2022-09-12T03:17:20.083Z,12.38
2022-09-12T03:21:27.746Z,15.07
2022-09-12T03:25:36.005Z,14.60
2022-09-12T03:29:42.544Z,16.02
2022-09-12T03:33:45.747Z,13.40
2022-09-12T03:37:49.657Z,13.18
2022-09-12T03:41:52.951Z,15.13
2022-09-12T03:45:57.069Z,15.70
2022-09-12T03:49:59.786Z,14.93
2022-09-12T03:54:02.529Z,13.23
2022-09-12T03:58:05.434Z,14.52
2022-09-12T04:02:12.530Z,15.38
2022-09-12T04:06:17.295Z,16.15
2022-09-12T04:10:20.129Z,17.20
2022-09-12T04:14:22.997Z,14.20
2022-09-12T04:18:27.563Z,14.68
2022-09-12T04:22:31.911Z,17.25
2022-09-12T04:26:34.621Z,13.88
2022-09-12T04:30:38.072Z,16.25
2022-09-12T04:34:42.209Z,15.43
2022-09-12T04:38:45.820Z,14.73
2022-09-12T04:42:48.619Z,16.38
2022-09-12T04:46:52.410Z,14.27
2022-09-12T04:50:56.496Z,14.82
2022-09-12T04:54:59.216Z,14.35
2022-09-12T04:59:02.791Z,16.83
2022-09-12T05:03:05.521Z,18.17
2022-09-12T05:07:09.964Z,25.35
2022-09-12T05:11:21.514Z,19.55
2022-09-12T05:15:27.053Z,18.98
2022-09-12T05:19:31.242Z,17.77
2022-09-12T05:23:35.334Z,15.85
2022-09-12T05:27:38.071Z,18.05
2022-09-12T05:31:40.846Z,21.13
2022-09-12T05:35:43.584Z,17.02
2022-09-12T05:39:48.335Z,21.63
2022-09-12T05:43:53.671Z,19.58
2022-09-12T05:47:56.383Z,18.55
2022-09-12T05:51:59.142Z,18.00
2022-09-12T05:56:08.494Z,20.63
2022-09-12T06:00:12.721Z,18.35
2022-09-12T06:04:15.823Z,15.80
2022-09-12T06:08:18.858Z,15.60
2022-09-12T06:12:22.900Z,17.30
2022-09-12T06:16:27.824Z,18.63
2022-09-12T06:20:30.595Z,20.80
2022-09-12T06:24:33.365Z,27.67
2022-09-12T06:28:39.209Z,21.75
2022-09-12T06:32:43.226Z,23.45
2022-09-12T06:36:48.036Z,18.08
2022-09-12T06:40:51.473Z,15.52
2022-09-12T06:44:55.520Z,19.75
2022-09-12T06:48:59.440Z,16.83
2022-09-12T06:53:02.135Z,18.13
2022-09-12T06:57:05.076Z,17.02
2022-09-12T07:01:11.121Z,14.25
2022-09-12T07:05:15.087Z,19.52
2022-09-12T07:09:17.893Z,10.95
2022-09-12T07:13:21.161Z,9.80
2022-09-12T07:17:25.233Z,9.88
2022-09-12T07:21:29.610Z,8.93
2022-09-12T07:25:32.445Z,10.57
2022-09-12T07:29:37.657Z,7.47
2022-09-12T07:33:42.980Z,6.47
2022-09-12T07:37:45.783Z,9.40
2022-09-12T07:41:48.552Z,6.75
2022-09-12T07:45:56.418Z,7.75
2022-09-12T07:50:00.583Z,5.53
2022-09-12T07:54:03.536Z,5.88
2022-09-12T07:58:06.253Z,5.88
2022-09-12T08:02:17.030Z,4.20
2022-09-12T08:06:24.026Z,7.63
2022-09-12T08:10:26.775Z,6.35
2022-09-12T08:14:29.739Z,5.47
2022-09-12T08:18:33.483Z,5.20
2022-09-12T08:22:37.602Z,6.53
2022-09-12T08:26:40.328Z,4.78
2022-09-12T08:30:43.081Z,4.80
2022-09-12T08:34:45.839Z,5.80
2022-09-12T08:38:51.488Z,5.40
2022-09-12T08:43:02.613Z,5.95
2022-09-12T08:47:21.144Z,6.20
2022-09-12T08:51:24.617Z,8.18
2022-09-12T08:55:34.053Z,5.97
2022-09-12T08:59:40.776Z,6.68
2022-09-12T09:04:11.390Z,6.15
2022-09-12T09:08:45.993Z,6.90
2022-09-12T09:12:57.345Z,5.50
2022-09-12T09:17:01.495Z,7.35
2022-09-12T09:21:10.277Z,6.40
2022-09-12T09:25:22.869Z,6.68
2022-09-12T09:29:30.735Z,6.25
2022-09-12T09:33:36.118Z,7.07
2022-09-12T09:37:43.225Z,5.63
2022-09-12T09:41:55.829Z,7.75
2022-09-12T09:46:06.740Z,6.15
2022-09-12T09:50:16.537Z,6.55
2022-09-12T09:54:23.846Z,8.63
2022-09-12T09:58:31.018Z,6.40
2022-09-12T10:02:35.372Z,6.40
2022-09-12T10:06:40.101Z,6.65
2022-09-12T10:10:54.981Z,6.85
2022-09-12T10:15:00.564Z,6.82
2022-09-12T10:19:05.325Z,7.53
2022-09-12T10:23:34.859Z,8.25
2022-09-12T10:27:37.866Z,6.95
2022-09-12T10:31:48.264Z,6.80
2022-09-12T10:35:54.922Z,6.60
2022-09-12T10:40:00.085Z,5.90
2022-09-12T10:44:08.208Z,5.97
2022-09-12T10:48:26.120Z,5.07
2022-09-12T10:52:30.354Z,6.07
2022-09-12T10:56:35.581Z,8.07
2022-09-12T11:00:47.901Z,5.00
2022-09-12T11:05:03.302Z,5.28
2022-09-12T11:09:13.169Z,5.60
2022-09-12T11:13:28.166Z,6.88
2022-09-12T11:17:46.885Z,6.00
2022-09-12T11:22:05.414Z,4.50
2022-09-12T11:26:20.728Z,6.03
2022-09-12T11:30:23.473Z,6.78
2022-09-12T11:34:36.460Z,5.63
2022-09-12T11:38:58.377Z,6.63
2022-09-12T11:43:08.281Z,5.55
2022-09-12T11:47:13.911Z,6.03
2022-09-12T11:51:21.404Z,5.35
2022-09-12T11:55:28.263Z,6.13
2022-09-12T11:59:37.865Z,4.93
2022-09-12T12:03:44.135Z,5.65
2022-09-12T12:07:53.152Z,7.35
2022-09-12T12:11:58.465Z,7.85
2022-09-12T12:16:07.122Z,4.90
2022-09-12T12:20:18.583Z,6.60
2022-09-12T12:24:23.056Z,5.07
2022-09-12T12:28:59.636Z,5.25
2022-09-12T12:33:28.190Z,6.00
2022-09-12T12:37:53.846Z,7.22
2022-09-12T12:41:56.591Z,6.20
2022-09-12T12:46:05.748Z,6.10
2022-09-12T12:50:23.827Z,4.78
2022-09-12T12:54:32.862Z,4.82
2022-09-12T12:58:38.668Z,4.53
2022-09-12T13:02:50.932Z,4.18
2022-09-12T13:07:05.793Z,4.63
2022-09-12T13:11:15.043Z,4.55
2022-09-12T13:15:48.887Z,4.47
2022-09-12T13:20:16.836Z,4.13
2022-09-12T13:24:18.805Z,4.22
2022-09-12T13:28:21.537Z,5.43
2022-09-12T13:32:24.949Z,4.18
2022-09-12T13:36:55.438Z,4.65
2022-09-12T13:41:18.424Z,4.47
2022-09-12T13:45:23.203Z,4.13
2022-09-12T13:49:32.905Z,5.45
2022-09-12T13:53:45.181Z,4.43
2022-09-12T13:57:58.091Z,4.38
2022-09-12T14:02:00.926Z,4.63
2022-09-12T14:06:06.191Z,4.40
2022-09-12T14:10:09.652Z,3.50
2022-09-12T14:14:21.910Z,3.75
2022-09-12T14:18:27.128Z,4.25
2022-09-12T14:22:30.440Z,4.28
2022-09-12T14:26:36.381Z,4.97
2022-09-12T14:30:40.747Z,4.60
2022-09-12T14:34:43.895Z,6.07
2022-09-12T14:38:52.532Z,3.88
2022-09-12T14:42:59.273Z,4.03
2022-09-12T14:47:16.402Z,4.03
2022-09-12T14:51:23.194Z,4.05
2022-09-12T14:55:30.462Z,4.65
2022-09-12T14:59:40.174Z,4.25
2022-09-12T15:03:53.798Z,5.22
2022-09-12T15:08:01.451Z,3.83
2022-09-12T15:12:04.174Z,4.15
2022-09-12T15:16:11.618Z,3.75
2022-09-12T15:20:16.452Z,3.80
2022-09-12T15:24:19.300Z,4.20
2022-09-12T15:28:24.827Z,4.60
2022-09-12T15:32:30.235Z,4.38
2022-09-12T15:36:34.276Z,3.97
2022-09-12T15:40:39.286Z,4.03
2022-09-12T15:44:42.270Z,4.35
2022-09-12T15:48:45.124Z,5.20
2022-09-12T15:52:49.294Z,4.38
2022-09-12T15:56:52.356Z,4.13
2022-09-12T16:00:55.129Z,3.97
2022-09-12T16:04:57.897Z,3.78
2022-09-12T16:09:02.291Z,4.00
2022-09-12T16:13:05.190Z,4.20
2022-09-12T16:17:08.037Z,5.68
2022-09-12T16:21:14.952Z,4.05
2022-09-12T16:25:19.676Z,3.80
2022-09-12T16:29:22.491Z,3.72
2022-09-12T16:33:25.685Z,3.85
2022-09-12T16:37:28.777Z,4.10
2022-09-12T16:41:32.830Z,4.22
2022-09-12T16:45:35.711Z,3.80
2022-09-12T16:49:38.445Z,3.72
2022-09-12T16:53:41.185Z,4.15
2022-09-12T16:57:45.888Z,3.83
2022-09-12T17:01:48.675Z,5.30
2022-09-12T17:05:58.865Z,4.20
2022-09-12T17:10:01.574Z,4.00
2022-09-12T17:14:08.141Z,4.13
2022-09-12T17:18:11.318Z,3.30
2022-09-12T17:22:14.118Z,3.50
2022-09-12T17:26:17.478Z,5.03
2022-09-12T17:30:21.971Z,3.95
2022-09-12T17:34:24.950Z,3.90
2022-09-12T17:38:27.839Z,4.40
2022-09-12T17:42:31.496Z,3.92
2022-09-12T17:46:37.481Z,3.70
2022-09-12T17:50:41.729Z,4.10
2022-09-12T17:54:45.049Z,4.25
2022-09-12T17:58:47.977Z,4.03
2022-09-12T18:02:52.074Z,4.43
2022-09-12T18:06:54.833Z,6.30
2022-09-12T18:11:05.158Z,4.22
2022-09-12T18:15:09.309Z,3.90
2022-09-12T18:19:13.980Z,4.80
2022-09-12T18:23:16.673Z,4.38
2022-09-12T18:27:19.578Z,4.50
2022-09-12T18:31:24.557Z,4.07
2022-09-12T18:35:28.786Z,4.32
2022-09-12T18:39:34.079Z,4.00
2022-09-12T18:43:37.354Z,4.57
2022-09-12T18:47:40.132Z,5.30
2022-09-12T18:51:44.489Z,5.15
2022-09-12T18:55:47.207Z,4.63
2022-09-12T18:59:49.983Z,5.35
2022-09-12T19:03:53.416Z,4.05
2022-09-12T19:07:57.727Z,4.78
2022-09-12T19:12:00.960Z,4.50
2022-09-12T19:16:06.039Z,4.30
2022-09-12T19:20:10.347Z,4.47
2022-09-12T19:24:16.356Z,4.60
2022-09-12T19:28:19.125Z,5.18
2022-09-12T19:32:22.425Z,4.55
2022-09-12T19:36:44.219Z,4.60
2022-09-12T19:40:58.993Z,6.82
2022-09-12T19:45:01.935Z,5.25
2022-09-12T19:49:05.136Z,4.90
2022-09-12T19:53:08.568Z,5.43
2022-09-12T19:57:15.700Z,4.60
2022-09-12T20:01:20.158Z,4.47
2022-09-12T20:05:23.139Z,5.68
2022-09-12T20:09:25.846Z,5.45
2022-09-12T20:13:30.100Z,5.30
2022-09-12T20:17:32.866Z,5.80
2022-09-12T20:21:36.039Z,4.38
2022-09-12T20:25:38.922Z,4.85
2022-09-12T20:29:45.499Z,3.90
2022-09-12T20:33:51.711Z,4.80
2022-09-12T20:37:54.906Z,4.55
2022-09-12T20:41:57.584Z,5.55
2022-09-12T20:46:06.172Z,4.43
2022-09-12T20:50:09.794Z,4.40
2022-09-12T20:54:13.011Z,5.55
2022-09-12T20:58:15.734Z,4.97
2022-09-12T21:02:19.934Z,4.57
2022-09-12T21:06:23.094Z,5.15
2022-09-12T21:10:25.902Z,4.53
2022-09-12T21:14:28.592Z,4.70
2022-09-12T21:18:34.168Z,4.47
2022-09-12T21:22:36.893Z,4.50
2022-09-12T21:26:39.602Z,4.53
2022-09-12T21:30:42.582Z,7.43
2022-09-12T21:34:46.762Z,5.03
2022-09-12T21:38:49.480Z,6.45
2022-09-12T21:42:52.269Z,4.55
2022-09-12T21:46:54.969Z,5.75
2022-09-12T21:50:59.590Z,7.85
2022-09-12T21:55:04.860Z,5.70
2022-09-12T21:59:07.593Z,5.07
2022-09-12T22:03:11.372Z,5.03
2022-09-12T22:07:15.608Z,7.13
2022-09-12T22:11:19.024Z,4.80
2022-09-12T22:19:45.024Z,4.72
2022-09-12T22:24:07.102Z,5.70
2022-09-12T22:28:09.773Z,4.90
2022-09-12T22:32:13.586Z,5.05
2022-09-12T22:36:16.353Z,6.93
2022-09-12T22:40:20.609Z,5.07
2022-09-12T22:44:23.345Z,5.35
2022-09-12T22:48:26.103Z,5.25
2022-09-12T22:52:28.862Z,6.93
2022-09-12T22:56:33.244Z,6.57
2022-09-12T23:00:36.233Z,5.00
2022-09-12T23:04:39.002Z,5.43
2022-09-12T23:08:41.759Z,8.40
2022-09-12T23:12:45.854Z,5.57
2022-09-12T23:16:48.635Z,4.88
2022-09-12T23:20:58.096Z,4.13
2022-09-12T23:25:00.818Z,4.43
2022-09-12T23:29:05.625Z,4.35
2022-09-12T23:33:08.410Z,4.78
2022-09-12T23:37:11.130Z,4.43
2022-09-12T23:41:15.138Z,4.55
2022-09-12T23:45:19.247Z,4.05
2022-09-12T23:49:21.947Z,4.03
2022-09-12T23:53:25.338Z,3.90
2022-09-12T23:57:28.500Z,4.25
